createdAt,value
2018-08-17T00:01:04.947Z,19.20
2018-08-17T00:03:35.335Z,19.10
2018-08-17T00:06:26.074Z,19.00
2018-08-17T00:08:56.456Z,19.00
2018-08-17T00:11:45.190Z,19.00
2018-08-17T00:14:15.581Z,19.00
2018-08-17T00:16:45.971Z,18.80
2018-08-17T00:19:16.384Z,18.80
2018-08-17T00:21:47.785Z,18.70
2018-08-17T00:24:18.173Z,18.80
2018-08-17T00:26:50.623Z,18.90
2018-08-17T00:29:21.012Z,18.90
2018-08-17T00:31:51.332Z,18.70
2018-08-17T00:34:21.729Z,18.80
2018-08-17T00:37:11.214Z,18.90
2018-08-17T00:39:42.393Z,18.80
2018-08-17T00:42:13.524Z,18.70
2018-08-17T00:44:43.900Z,18.60
2018-08-17T00:47:14.328Z,18.80
2018-08-17T00:49:44.930Z,18.90
2018-08-17T00:52:16.075Z,19.00
2018-08-17T00:54:47.259Z,19.00
2018-08-17T00:57:21.743Z,19.10
2018-08-17T00:59:52.136Z,18.90
2018-08-17T01:02:22.542Z,18.50
2018-08-17T01:05:14.338Z,18.60
2018-08-17T01:07:44.745Z,18.90
2018-08-17T01:10:15.889Z,18.60
2018-08-17T01:12:47.041Z,18.50
2018-08-17T01:15:18.196Z,18.50
2018-08-17T01:17:48.584Z,18.40
2018-08-17T01:20:18.962Z,18.60
2018-08-17T01:22:49.371Z,18.70
2018-08-17T01:25:20.788Z,18.60
2018-08-17T01:27:51.178Z,18.40
2018-08-17T01:30:27.727Z,18.40
2018-08-17T01:32:58.107Z,18.50
2018-08-17T01:35:28.480Z,18.30
2018-08-17T01:37:59.104Z,18.40
2018-08-17T01:40:29.496Z,18.40
2018-08-17T01:42:59.884Z,18.30
2018-08-17T01:45:33.359Z,18.30
2018-08-17T01:48:03.752Z,18.40
2018-08-17T01:50:34.129Z,18.40
2018-08-17T01:53:04.564Z,18.50
2018-08-17T01:55:35.688Z,18.40
2018-08-17T01:58:06.079Z,18.40
2018-08-17T02:00:36.480Z,18.20
2018-08-17T02:03:06.872Z,18.20
2018-08-17T02:05:37.268Z,18.20
2018-08-17T02:08:07.670Z,18.10
2018-08-17T02:10:38.060Z,18.20
2018-08-17T02:13:10.482Z,18.20
2018-08-17T02:15:42.934Z,18.20
2018-08-17T02:18:13.314Z,18.10
2018-08-17T02:20:43.704Z,18.10
2018-08-17T02:23:14.105Z,18.20
2018-08-17T02:25:44.504Z,18.30
2018-08-17T02:28:14.898Z,18.10
2018-08-17T02:30:45.316Z,18.40
2018-08-17T02:33:15.695Z,18.30
2018-08-17T02:35:46.076Z,18.20
2018-08-17T02:38:16.457Z,18.20
2018-08-17T02:40:53.939Z,18.10
2018-08-17T02:43:24.358Z,18.20
2018-08-17T02:45:54.749Z,18.10
2018-08-17T02:48:25.152Z,18.00
2018-08-17T02:50:55.554Z,18.10
2018-08-17T02:56:14.698Z,18.00
2018-08-17T02:58:45.836Z,18.10
2018-08-17T03:01:16.231Z,18.10
2018-08-17T03:03:46.645Z,18.20
2018-08-17T03:06:39.201Z,18.20
2018-08-17T03:09:09.613Z,18.20
2018-08-17T03:11:46.140Z,18.00
2018-08-17T03:14:17.320Z,17.90
2018-08-17T03:16:47.652Z,17.80
2018-08-17T03:19:25.386Z,17.80
2018-08-17T03:21:55.782Z,17.70
2018-08-17T03:24:28.207Z,17.60
2018-08-17T03:26:59.384Z,17.50
2018-08-17T03:29:29.997Z,17.50
2018-08-17T03:32:01.146Z,17.60
2018-08-17T03:34:31.781Z,17.60
2018-08-17T03:37:03.201Z,17.50
2018-08-17T03:39:33.567Z,17.40
2018-08-17T03:42:03.965Z,17.30
2018-08-17T03:44:35.108Z,17.50
2018-08-17T03:47:06.262Z,17.50
2018-08-17T03:49:37.444Z,17.50
2018-08-17T03:52:07.834Z,17.40
2018-08-17T03:54:38.158Z,17.30
2018-08-17T03:57:09.260Z,17.20
2018-08-17T03:59:41.568Z,17.20
2018-08-17T04:02:12.737Z,17.30
2018-08-17T04:04:43.153Z,17.30
2018-08-17T04:07:14.491Z,17.30
2018-08-17T04:09:44.874Z,17.20
2018-08-17T04:12:15.296Z,17.10
2018-08-17T04:14:51.819Z,17.20
2018-08-17T04:17:22.267Z,17.30
2018-08-17T04:19:52.648Z,17.40
2018-08-17T04:22:23.035Z,17.30
2018-08-17T04:24:53.445Z,17.40
2018-08-17T04:27:23.831Z,17.20
2018-08-17T04:29:54.227Z,17.30
2018-08-17T04:32:46.038Z,17.30
2018-08-17T04:35:20.551Z,17.50
2018-08-17T04:37:51.699Z,17.30
2018-08-17T04:40:22.096Z,17.30
2018-08-17T04:42:53.253Z,17.10
2018-08-17T04:45:23.888Z,17.10
2018-08-17T04:47:55.044Z,16.90
2018-08-17T04:50:25.423Z,16.90
2018-08-17T04:52:55.836Z,17.00
2018-08-17T04:55:26.149Z,16.80
2018-08-17T04:58:00.626Z,16.90
2018-08-17T05:00:31.039Z,16.90
2018-08-17T05:03:02.217Z,17.00
2018-08-17T05:05:32.617Z,17.00
2018-08-17T05:08:03.802Z,17.20
2018-08-17T05:10:41.345Z,17.10
2018-08-17T05:13:11.758Z,17.30
2018-08-17T05:15:42.347Z,17.20
2018-08-17T05:18:12.740Z,17.20
2018-08-17T05:20:43.925Z,17.10
2018-08-17T05:23:20.731Z,17.00
2018-08-17T05:25:51.083Z,17.10
2018-08-17T05:28:22.229Z,16.80
2018-08-17T05:30:53.632Z,16.80
2018-08-17T05:33:24.043Z,16.70
2018-08-17T05:35:54.475Z,16.80
2018-08-17T05:38:25.573Z,16.80
2018-08-17T05:40:58.812Z,17.10
2018-08-17T05:43:29.193Z,17.00
2018-08-17T05:46:00.343Z,17.10
2018-08-17T05:48:30.694Z,17.10
2018-08-17T05:51:01.084Z,17.10
2018-08-17T05:53:31.472Z,16.90
2018-08-17T05:56:01.882Z,17.00
2018-08-17T05:58:33.994Z,17.10
2018-08-17T06:01:04.396Z,17.30
2018-08-17T06:03:35.836Z,17.10
2018-08-17T06:06:08.267Z,17.10
2018-08-17T06:08:39.407Z,17.20
2018-08-17T06:11:09.938Z,17.20
2018-08-17T06:13:40.200Z,17.10
2018-08-17T06:16:10.583Z,17.00
2018-08-17T06:18:41.767Z,17.00
2018-08-17T06:21:12.196Z,17.00
2018-08-17T06:23:42.584Z,16.90
2018-08-17T06:26:13.000Z,17.10
2018-08-17T06:28:43.399Z,17.10
2018-08-17T06:31:13.780Z,17.30
2018-08-17T06:33:44.972Z,17.40
2018-08-17T06:36:16.388Z,17.40
2018-08-17T06:38:46.769Z,17.60
2018-08-17T06:41:17.188Z,17.60
2018-08-17T06:43:47.584Z,17.70
2018-08-17T06:46:20.006Z,17.90
2018-08-17T06:48:50.425Z,18.00
2018-08-17T06:51:20.820Z,17.80
2018-08-17T06:53:51.225Z,17.80
2018-08-17T06:56:21.639Z,17.80
2018-08-17T06:58:52.088Z,17.80
2018-08-17T07:01:22.400Z,18.10
2018-08-17T07:03:52.816Z,18.20
2018-08-17T07:06:23.972Z,17.80
2018-08-17T07:11:41.734Z,18.00
2018-08-17T07:14:12.118Z,18.20
2018-08-17T07:16:42.594Z,17.90
2018-08-17T07:19:13.676Z,18.10
2018-08-17T07:21:44.162Z,18.00
2018-08-17T07:24:14.442Z,18.10
2018-08-17T07:26:44.787Z,18.30
2018-08-17T07:29:15.182Z,18.50
2018-08-17T07:31:45.585Z,18.70
2018-08-17T07:34:16.011Z,19.00
2018-08-17T07:36:53.721Z,19.00
2018-08-17T07:39:24.130Z,18.90
2018-08-17T07:42:01.840Z,19.00
2018-08-17T07:44:32.254Z,19.20
2018-08-17T07:47:06.743Z,19.10
2018-08-17T07:49:37.177Z,19.40
2018-08-17T07:52:07.551Z,19.30
2018-08-17T07:54:37.939Z,19.30
2018-08-17T07:57:08.347Z,19.30
2018-08-17T07:59:38.731Z,19.30
2018-08-17T08:02:10.156Z,19.20
2018-08-17T08:04:42.819Z,19.00
2018-08-17T08:07:13.221Z,19.10
2018-08-17T08:09:45.423Z,19.60
2018-08-17T08:12:15.827Z,19.60
2018-08-17T08:14:46.995Z,19.90
2018-08-17T08:17:17.390Z,19.90
2018-08-17T08:19:48.853Z,20.20
2018-08-17T08:22:19.245Z,20.20
2018-08-17T08:24:49.638Z,20.10
2018-08-17T08:27:20.062Z,20.00
2018-08-17T08:29:50.453Z,20.30
2018-08-17T08:32:21.634Z,20.50
2018-08-17T08:34:52.042Z,20.40
2018-08-17T08:37:23.314Z,20.40
2018-08-17T08:39:53.751Z,20.50
2018-08-17T08:42:24.817Z,20.20
2018-08-17T08:44:55.218Z,20.20
2018-08-17T08:47:27.637Z,20.50
2018-08-17T08:49:58.897Z,20.70
2018-08-17T08:52:29.288Z,20.70
2018-08-17T08:54:59.692Z,20.40
2018-08-17T08:57:30.111Z,20.50
2018-08-17T09:00:02.571Z,20.60
2018-08-17T09:02:32.986Z,20.80
2018-08-17T09:05:03.406Z,21.10
2018-08-17T09:07:34.571Z,21.30
2018-08-17T09:10:04.950Z,21.30
2018-08-17T09:12:36.092Z,20.90
2018-08-17T09:15:06.528Z,20.70
2018-08-17T09:17:36.929Z,20.30
2018-08-17T09:20:07.393Z,20.20
2018-08-17T09:22:37.756Z,20.10
2018-08-17T09:25:09.153Z,19.80
2018-08-17T09:27:39.579Z,19.70
2018-08-17T09:30:10.014Z,19.70
2018-08-17T09:32:43.469Z,20.10
2018-08-17T09:35:32.923Z,20.80
2018-08-17T09:38:03.325Z,20.80
2018-08-17T09:40:33.714Z,20.50
2018-08-17T09:43:10.246Z,20.80
2018-08-17T09:45:40.633Z,21.20
2018-08-17T09:48:11.012Z,21.00
2018-08-17T09:50:41.494Z,21.10
2018-08-17T09:53:12.648Z,21.40
2018-08-17T09:55:43.733Z,21.40
2018-08-17T09:58:14.144Z,21.40
2018-08-17T10:00:44.533Z,20.80
2018-08-17T10:03:14.864Z,21.30
2018-08-17T10:05:46.054Z,21.40
2018-08-17T10:08:22.513Z,21.50
2018-08-17T10:10:52.851Z,21.80
2018-08-17T10:13:23.242Z,21.40
2018-08-17T10:15:54.500Z,20.90
2018-08-17T10:18:24.838Z,20.90
2018-08-17T10:20:55.480Z,20.90
2018-08-17T10:23:27.411Z,21.40
2018-08-17T10:25:57.838Z,21.40
2018-08-17T10:28:29.627Z,21.70
2018-08-17T10:31:06.331Z,21.80
2018-08-17T10:33:36.728Z,21.80
2018-08-17T10:36:07.131Z,21.70
2018-08-17T10:38:37.543Z,21.70
2018-08-17T10:41:08.713Z,20.90
2018-08-17T10:43:39.118Z,20.90
2018-08-17T10:46:10.276Z,21.10
2018-08-17T10:48:40.698Z,21.10
2018-08-17T10:51:11.067Z,21.60
2018-08-17T10:53:42.449Z,21.90
2018-08-17T10:56:12.846Z,22.10
2018-08-17T10:58:43.247Z,21.80
2018-08-17T11:01:13.653Z,21.40
2018-08-17T11:03:44.813Z,21.20
2018-08-17T11:06:15.207Z,21.20
2018-08-17T11:08:46.403Z,22.00
2018-08-17T11:11:16.785Z,21.90
2018-08-17T11:13:47.182Z,22.10
2018-08-17T11:16:17.525Z,22.50
2018-08-17T11:18:48.967Z,22.70
2018-08-17T11:21:19.361Z,22.20
2018-08-17T11:23:49.713Z,21.70
2018-08-17T11:29:08.222Z,22.30
2018-08-17T11:31:39.377Z,22.50
2018-08-17T11:34:09.768Z,22.60
2018-08-17T11:36:40.195Z,22.50
2018-08-17T11:39:10.583Z,22.40
2018-08-17T11:42:03.180Z,22.20
2018-08-17T11:44:34.332Z,22.40
2018-08-17T11:47:04.737Z,22.40
2018-08-17T11:49:35.166Z,22.50
2018-08-17T11:52:05.563Z,22.10
2018-08-17T11:54:36.983Z,21.80
2018-08-17T11:57:07.334Z,21.60
2018-08-17T11:59:38.756Z,21.80
2018-08-17T12:02:09.142Z,22.10
2018-08-17T12:04:39.544Z,22.40
2018-08-17T12:07:10.961Z,22.40
2018-08-17T12:09:41.337Z,22.40
2018-08-17T12:12:11.755Z,22.40
2018-08-17T12:14:42.139Z,22.60
2018-08-17T12:17:13.492Z,22.60
2018-08-17T12:19:43.888Z,22.60
2018-08-17T12:22:15.238Z,23.00
2018-08-17T12:24:46.507Z,22.90
2018-08-17T12:27:16.824Z,22.90
2018-08-17T12:29:47.968Z,22.60
2018-08-17T12:32:18.381Z,22.60
2018-08-17T12:34:51.616Z,23.10
2018-08-17T12:37:24.061Z,23.00
2018-08-17T12:39:57.271Z,23.00
2018-08-17T12:42:27.681Z,23.00
2018-08-17T12:44:58.082Z,23.10
2018-08-17T12:47:28.477Z,23.20
2018-08-17T12:50:03.002Z,23.10
2018-08-17T12:52:52.499Z,23.20
2018-08-17T12:55:22.918Z,23.20
2018-08-17T12:57:53.321Z,23.10
2018-08-17T13:00:23.696Z,23.40
2018-08-17T13:02:54.903Z,23.30
2018-08-17T13:05:46.688Z,23.30
2018-08-17T13:08:17.115Z,23.20
2018-08-17T13:10:50.326Z,22.60
2018-08-17T13:13:20.720Z,22.60
2018-08-17T13:15:52.195Z,22.50
2018-08-17T13:18:22.585Z,22.50
2018-08-17T13:20:52.991Z,22.80
2018-08-17T13:23:23.406Z,23.10
2018-08-17T13:26:13.107Z,23.30
2018-08-17T13:28:43.527Z,23.40
2018-08-17T13:31:14.558Z,23.40
2018-08-17T13:33:44.987Z,23.10
2018-08-17T13:36:15.533Z,23.20
2018-08-17T13:38:45.803Z,23.00
2018-08-17T13:41:16.196Z,23.00
2018-08-17T13:43:46.608Z,22.60
2018-08-17T13:46:16.988Z,22.90
2018-08-17T13:48:47.392Z,23.00
2018-08-17T13:51:18.582Z,23.10
2018-08-17T13:53:55.116Z,23.10
2018-08-17T13:56:25.564Z,22.90
2018-08-17T13:58:55.950Z,22.50
2018-08-17T14:01:26.343Z,22.60
2018-08-17T14:03:58.806Z,22.50
2018-08-17T14:06:30.436Z,22.70
2018-08-17T14:09:01.066Z,22.70
2018-08-17T14:11:31.495Z,22.90
2018-08-17T14:14:01.900Z,23.10
2018-08-17T14:16:32.988Z,23.10
2018-08-17T14:19:04.430Z,23.10
2018-08-17T14:21:34.841Z,22.90
2018-08-17T14:24:05.270Z,22.90
2018-08-17T14:26:35.703Z,23.00
2018-08-17T14:29:06.086Z,22.90
2018-08-17T14:31:36.475Z,22.80
2018-08-17T14:34:09.007Z,22.80
2018-08-17T14:36:39.368Z,23.00
2018-08-17T14:39:09.768Z,22.90
2018-08-17T14:41:40.937Z,22.90
2018-08-17T14:44:11.349Z,22.90
2018-08-17T14:46:41.734Z,23.00
2018-08-17T14:49:12.159Z,22.90
2018-08-17T14:54:30.430Z,22.80
2018-08-17T14:57:00.747Z,22.70
2018-08-17T14:59:31.141Z,22.70
2018-08-17T15:02:01.570Z,22.70
2018-08-17T15:04:34.002Z,22.60
2018-08-17T15:07:04.450Z,22.50
2018-08-17T15:09:36.768Z,22.50
2018-08-17T15:12:07.161Z,22.60
2018-08-17T15:14:37.561Z,22.40
2018-08-17T15:17:08.748Z,22.50
2018-08-17T15:19:39.147Z,22.50
2018-08-17T15:22:10.300Z,22.50
2018-08-17T15:24:40.732Z,22.50
2018-08-17T15:27:11.110Z,22.50
2018-08-17T15:29:41.494Z,22.50
2018-08-17T15:32:11.995Z,22.60
2018-08-17T15:34:44.573Z,22.60
2018-08-17T15:37:15.742Z,22.60
2018-08-17T15:39:46.158Z,22.60
2018-08-17T15:42:16.549Z,22.60
2018-08-17T15:44:46.941Z,22.70
2018-08-17T15:47:36.731Z,22.70
2018-08-17T15:50:07.109Z,22.90
2018-08-17T15:52:37.508Z,23.00
2018-08-17T15:55:07.922Z,23.00
2018-08-17T15:57:38.447Z,22.90
2018-08-17T16:00:16.582Z,22.90
2018-08-17T16:02:47.755Z,22.90
2018-08-17T16:05:18.172Z,22.90
2018-08-17T16:07:48.583Z,23.10
2018-08-17T16:10:19.777Z,22.90
2018-08-17T16:12:50.164Z,22.90
2018-08-17T16:15:21.345Z,22.90
2018-08-17T16:17:56.843Z,22.90
2018-08-17T16:20:27.287Z,22.90
2018-08-17T16:22:58.444Z,22.90
2018-08-17T16:25:28.856Z,22.90
2018-08-17T16:28:00.047Z,22.60
2018-08-17T16:30:31.464Z,22.60
2018-08-17T16:33:02.608Z,22.50
2018-08-17T16:35:33.040Z,22.40
2018-08-17T16:38:03.365Z,22.40
2018-08-17T16:40:33.753Z,22.50
2018-08-17T16:43:04.183Z,22.40
2018-08-17T16:45:34.573Z,22.30
2018-08-17T16:48:26.398Z,22.20
2018-08-17T16:50:56.797Z,22.20
2018-08-17T16:53:27.123Z,22.20
2018-08-17T16:55:58.495Z,22.00
2018-08-17T16:58:28.882Z,22.00
2018-08-17T17:01:00.148Z,22.10
2018-08-17T17:03:30.476Z,22.00
2018-08-17T17:06:00.880Z,22.00
2018-08-17T17:08:32.027Z,22.00
2018-08-17T17:11:02.442Z,22.00
2018-08-17T17:13:33.597Z,22.00
2018-08-17T17:16:04.762Z,21.90
2018-08-17T17:18:35.190Z,21.90
2018-08-17T17:21:05.593Z,21.90
2018-08-17T17:23:36.753Z,21.90
2018-08-17T17:26:07.164Z,21.80
2018-08-17T17:28:38.513Z,21.90
2018-08-17T17:31:09.659Z,21.80
2018-08-17T17:33:42.812Z,21.80
2018-08-17T17:36:13.183Z,21.80
2018-08-17T17:38:43.581Z,21.70
2018-08-17T17:41:13.933Z,21.70
2018-08-17T17:43:44.318Z,21.70
2018-08-17T17:46:14.702Z,21.70
2018-08-17T17:48:45.326Z,21.70
2018-08-17T17:51:15.736Z,21.70
2018-08-17T17:53:46.882Z,21.60
2018-08-17T17:56:18.062Z,21.60
2018-08-17T17:58:48.457Z,21.60
2018-08-17T18:01:18.881Z,21.60
2018-08-17T18:03:50.074Z,21.50
2018-08-17T18:06:22.499Z,21.50
2018-08-17T18:08:53.662Z,21.30
2018-08-17T18:11:24.075Z,21.30
2018-08-17T18:13:55.216Z,21.40
2018-08-17T18:16:26.358Z,21.40
2018-08-17T18:18:57.541Z,21.30
2018-08-17T18:21:29.967Z,21.30
2018-08-17T18:24:00.365Z,21.30
2018-08-17T18:26:30.797Z,21.20
2018-08-17T18:29:01.189Z,21.20
2018-08-17T18:31:31.666Z,21.20
2018-08-17T18:34:02.036Z,21.10
2018-08-17T18:36:32.422Z,21.10
2018-08-17T18:39:02.817Z,21.00
2018-08-17T18:41:40.466Z,21.10
2018-08-17T18:44:11.007Z,21.00
2018-08-17T18:46:41.534Z,21.00
2018-08-17T18:49:11.924Z,20.90
2018-08-17T18:51:42.323Z,20.80
2018-08-17T18:54:20.057Z,20.80
2018-08-17T18:56:50.507Z,20.80
2018-08-17T18:59:20.832Z,20.80
2018-08-17T19:01:51.997Z,20.60
2018-08-17T19:07:13.396Z,20.60
2018-08-17T19:09:43.791Z,20.50
2018-08-17T19:12:24.288Z,20.50
2018-08-17T19:14:54.689Z,20.60
2018-08-17T19:17:25.077Z,20.50
2018-08-17T19:19:58.229Z,20.40
2018-08-17T19:22:28.612Z,20.40
2018-08-17T19:24:59.002Z,20.30
2018-08-17T19:27:30.187Z,20.30
2018-08-17T19:30:08.880Z,20.30
2018-08-17T19:32:39.308Z,20.40
2018-08-17T19:35:09.629Z,20.40
2018-08-17T19:37:41.817Z,20.20
2018-08-17T19:40:12.158Z,20.20
2018-08-17T19:42:42.553Z,20.10
2018-08-17T19:45:15.565Z,20.00
2018-08-17T19:47:48.023Z,20.00
2018-08-17T19:50:18.426Z,20.00
2018-08-17T19:52:49.653Z,19.90
2018-08-17T19:55:23.492Z,19.90
2018-08-17T19:57:56.471Z,19.80
2018-08-17T20:00:27.627Z,19.80
2018-08-17T20:02:58.257Z,19.80
2018-08-17T20:05:28.653Z,19.70
2018-08-17T20:07:59.043Z,19.70
2018-08-17T20:10:29.457Z,19.70
2018-08-17T20:12:59.848Z,19.60
2018-08-17T20:15:31.010Z,19.60
2018-08-17T20:18:01.432Z,19.60
2018-08-17T20:20:32.579Z,19.60
2018-08-17T20:23:03.737Z,19.50
2018-08-17T20:25:34.171Z,19.40
2018-08-17T20:28:04.550Z,19.40
2018-08-17T20:30:34.931Z,19.50
2018-08-17T20:33:09.119Z,19.60
2018-08-17T20:35:40.276Z,19.40
2018-08-17T20:38:10.672Z,19.40
2018-08-17T20:40:41.090Z,19.30
2018-08-17T20:43:11.479Z,19.30
2018-08-17T20:45:41.859Z,19.20
2018-08-17T20:48:14.072Z,19.10
2018-08-17T20:50:46.518Z,19.10
2018-08-17T20:53:16.911Z,19.20
2018-08-17T20:55:47.271Z,19.10
2018-08-17T20:58:19.110Z,19.10
2018-08-17T21:00:49.488Z,19.10
2018-08-17T21:03:39.013Z,19.10
2018-08-17T21:06:10.150Z,19.00
2018-08-17T21:08:41.309Z,19.10
2018-08-17T21:11:12.487Z,19.10
2018-08-17T21:13:43.590Z,19.10
2018-08-17T21:16:14.750Z,19.00
2018-08-17T21:18:45.174Z,18.90
2018-08-17T21:21:16.346Z,18.90
2018-08-17T21:23:46.727Z,18.90
2018-08-17T21:26:17.927Z,18.70
2018-08-17T21:28:52.496Z,18.70
2018-08-17T21:31:22.654Z,18.80
2018-08-17T21:33:53.147Z,18.70
2018-08-17T21:36:23.452Z,18.70
2018-08-17T21:38:53.842Z,18.70
2018-08-17T21:41:24.275Z,18.60
2018-08-17T21:43:54.638Z,18.60
2018-08-17T21:46:25.020Z,18.60
2018-08-17T21:48:55.365Z,18.50
2018-08-17T21:51:25.765Z,18.50
2018-08-17T21:53:56.155Z,18.60
2018-08-17T21:56:26.547Z,18.30
2018-08-17T21:58:56.949Z,18.40
2018-08-17T22:01:27.272Z,18.30
2018-08-17T22:03:57.764Z,18.40
2018-08-17T22:06:28.085Z,18.50
2018-08-17T22:08:58.470Z,18.50
2018-08-17T22:11:28.902Z,18.50
2018-08-17T22:14:18.672Z,18.40
2018-08-17T22:16:53.194Z,18.50
2018-08-17T22:19:25.631Z,18.50
2018-08-17T22:21:56.865Z,18.40
2018-08-17T22:24:27.212Z,18.40
2018-08-17T22:26:58.361Z,18.10
2018-08-17T22:29:28.812Z,18.10
2018-08-17T22:31:59.205Z,18.00
2018-08-17T22:34:30.346Z,18.10
2018-08-17T22:37:01.697Z,18.00
2018-08-17T22:39:32.891Z,18.00
2018-08-17T22:42:24.764Z,18.00
2018-08-17T22:44:55.118Z,18.10
2018-08-17T22:47:25.453Z,18.00
2018-08-17T22:49:55.835Z,17.70
2018-08-17T22:52:26.195Z,17.70
2018-08-17T22:54:56.522Z,17.80
2018-08-17T22:57:26.909Z,17.90
2018-08-17T23:02:44.051Z,17.60
2018-08-17T23:05:14.398Z,17.80
2018-08-17T23:07:44.721Z,17.80
2018-08-17T23:10:15.134Z,17.70
2018-08-17T23:12:45.478Z,17.70
2018-08-17T23:15:15.797Z,17.60
2018-08-17T23:17:47.152Z,17.40
2018-08-17T23:20:18.348Z,17.30
2018-08-17T23:22:48.746Z,17.30
2018-08-17T23:25:19.141Z,17.40
2018-08-17T23:27:50.332Z,17.50
2018-08-17T23:30:20.726Z,17.50
2018-08-17T23:32:51.939Z,17.40
2018-08-17T23:35:22.291Z,17.40
2018-08-17T23:37:52.678Z,17.50
2018-08-17T23:40:23.077Z,17.20
2018-08-17T23:42:53.501Z,17.10
2018-08-17T23:45:24.917Z,17.30
2018-08-17T23:47:55.295Z,17.40
2018-08-17T23:50:25.704Z,17.30
2018-08-17T23:52:57.125Z,17.30
2018-08-17T23:55:28.287Z,17.30
2018-08-17T23:57:58.713Z,17.20
